Oceania — SQOC — position and weather

sailwx.info

Track history (hours):
 
Tides and Currents Weather Stations Pressure Air Temp Water Temp Dewpoint Dewpoint Depression Visibility Wind Speed Wind Dir Waves Ship Positions

Oceanographic research ship Oceania (Poland)

Detailed information on ship capabilities available from University of Delaware's Ocean Information Center and ARCUS's ALIAS (Arctic Logistics Information and Support) project.

Last reported at 2018-Feb-23 17:28 UTC. Time now 2018-Feb-23 17:53 UTC.
Position N 54°36' E 018°48'.

Length 49 m; beam 9 m.

Type: Sailing vessel. MMSI: 261000142.

Date/timePositionNaut miles runAvg speedWind from/ knotsBaromVisibWave heightAir tempDewpointWater temp
2018-Feb-23 17:28N 54°36' E 018°48'0 0.0
2018-Feb-23 16:58N 54°36' E 018°48'0 0.0
2018-Feb-23 16:28N 54°36' E 018°48'0 0.0
2018-Feb-23 15:58N 54°36' E 018°48'0 0.0
2018-Feb-23 15:28N 54°36' E 018°48'0 0.0
2018-Feb-23 14:58N 54°36' E 018°48'0 0.6
2018-Feb-23 14:30N 54°36' E 018°48'2 4.3
2018-Feb-23 14:00N 54°37' E 018°51'5 9.3
2018-Feb-23 13:30N 54°41' E 018°47'510.4
2018-Feb-23 13:00N 54°45' E 018°41'510.3
2018-Feb-23 12:30N 54°49' E 018°35'510.5
2018-Feb-23 12:00N 54°53' E 018°29'510.5
2018-Feb-23 11:30N 54°57' E 018°23'  
2018-Feb-19 20:09N 54°52' E 018°17'310.1
2018-Feb-19 19:49N 54°51' E 018°22'310.1
2018-Feb-19 19:30N 54°50' E 018°27'5 9.8
2018-Feb-19 19:00N 54°47' E 018°34'5 9.9
2018-Feb-19 18:30N 54°44' E 018°42'510.0
2018-Feb-19 18:00N 54°41' E 018°48'5 9.7
2018-Feb-19 17:30N 54°38' E 018°54'4 8.2
2018-Feb-19 16:58N 54°33' E 018°54'510.0
2018-Feb-19 16:30N 54°30' E 018°49'5 9.9
2018-Feb-19 16:00N 54°27' E 018°41'3 6.2
2018-Feb-19 15:30N 54°24' E 018°41'0 0.0
2018-Feb-19 15:00N 54°24' E 018°41'0 0.0
2018-Feb-19 14:30N 54°24' E 018°41'0 0.0
2018-Feb-19 14:00N 54°24' E 018°41'0 0.0
2018-Feb-19 13:30N 54°24' E 018°41'0 0.0
2018-Feb-19 13:00N 54°24' E 018°41'0 0.0
2018-Feb-19 12:30N 54°24' E 018°41'0 0.0
2018-Feb-19 12:00N 54°24' E 018°41'0 0.0
2018-Feb-19 11:30N 54°24' E 018°41'0 0.0
2018-Feb-19 11:00N 54°24' E 018°41'0 0.0
2018-Feb-19 10:30N 54°24' E 018°41'0 0.0
2018-Feb-19 09:57N 54°24' E 018°41'0 0.0
2018-Feb-19 09:30N 54°24' E 018°41'0 0.0
2018-Feb-19 09:00N 54°24' E 018°41'0 0.0
2018-Feb-19 08:30N 54°24' E 018°41'0 0.0
2018-Feb-19 08:00N 54°24' E 018°41'0 0.0
2018-Feb-19 07:30N 54°24' E 018°41'0 0.0
2018-Feb-19 07:00N 54°24' E 018°41'0 0.0
2018-Feb-19 06:29N 54°24' E 018°41'0 0.0
2018-Feb-19 06:00N 54°24' E 018°41'0 0.0
2018-Feb-19 05:30N 54°24' E 018°41'0 0.0
2018-Feb-19 05:00N 54°24' E 018°41'0 0.0
2018-Feb-19 04:30N 54°24' E 018°41'0 0.0
2018-Feb-19 04:00N 54°24' E 018°41'0 0.0
2018-Feb-19 03:30N 54°24' E 018°41'0 0.0
2018-Feb-19 03:00N 54°24' E 018°41'0 0.0
2018-Feb-19 02:30N 54°24' E 018°41'0 0.0
2018-Feb-19 02:00N 54°24' E 018°41'0 0.0
2018-Feb-19 01:30N 54°24' E 018°41'0 0.0
2018-Feb-19 01:00N 54°24' E 018°41'0 0.0
2018-Feb-19 00:30N 54°24' E 018°41'0 0.0
2018-Feb-19 00:00N 54°24' E 018°41'0 0.0
2018-Feb-18 23:29N 54°24' E 018°41'0 0.0
2018-Feb-18 23:00N 54°24' E 018°41'0 0.0
2018-Feb-18 22:31N 54°24' E 018°41'0 0.0
2018-Feb-18 22:00N 54°24' E 018°41'0 0.0
2018-Feb-18 21:30N 54°24' E 018°41'0 0.0
2018-Feb-18 21:00N 54°24' E 018°41'0 0.0
2018-Feb-18 20:30N 54°24' E 018°41'0 0.0
2018-Feb-18 20:00N 54°24' E 018°41'0 0.0
2018-Feb-18 19:28N 54°24' E 018°41'0 0.0
2018-Feb-18 19:00N 54°24' E 018°41'0 0.0
2018-Feb-18 18:30N 54°24' E 018°41'0 0.0
2018-Feb-18 18:00N 54°24' E 018°41'0 0.0
2018-Feb-18 17:30N 54°24' E 018°41'0 0.0
2018-Feb-18 17:00N 54°24' E 018°41'0 0.0
2018-Feb-18 16:30N 54°24' E 018°41'0 0.0
2018-Feb-18 16:00N 54°24' E 018°41'0 0.0
2018-Feb-18 15:30N 54°24' E 018°41'0 0.0
2018-Feb-18 15:00N 54°24' E 018°41'0 0.0
2018-Feb-18 14:30N 54°24' E 018°41'0 0.0
2018-Feb-18 14:00N 54°24' E 018°41'0 0.0
2018-Feb-18 13:30N 54°24' E 018°41'0 0.0
2018-Feb-18 13:00N 54°24' E 018°41'0 0.0
2018-Feb-18 12:30N 54°24' E 018°41'0 0.0
2018-Feb-18 11:59N 54°24' E 018°41'0 0.0
2018-Feb-18 11:30N 54°24' E 018°41'0 0.0
2018-Feb-18 10:59N 54°24' E 018°41'0 0.0
2018-Feb-18 10:30N 54°24' E 018°41'0 0.0
2018-Feb-18 10:00N 54°24' E 018°41'0 0.0
2018-Feb-18 09:30N 54°24' E 018°41'0 0.0
2018-Feb-18 09:00N 54°24' E 018°41'0 0.0
2018-Feb-18 08:30N 54°24' E 018°41'0 0.0
2018-Feb-18 08:00N 54°24' E 018°41'0 0.0
2018-Feb-18 07:30N 54°24' E 018°41'0 0.0
2018-Feb-18 06:59N 54°24' E 018°41'0 0.0
2018-Feb-18 06:29N 54°24' E 018°41'0 0.0
2018-Feb-18 06:00N 54°24' E 018°41'0 0.0
2018-Feb-18 05:30N 54°24' E 018°41'0 0.0
2018-Feb-18 05:00N 54°24' E 018°41'0 0.0
2018-Feb-18 04:30N 54°24' E 018°41'0 0.0
2018-Feb-18 04:00N 54°24' E 018°41'0 0.0
2018-Feb-18 03:30N 54°24' E 018°41'0 0.0
2018-Feb-18 03:00N 54°24' E 018°41'0 0.0
2018-Feb-18 02:30N 54°24' E 018°41'0 0.0
2018-Feb-18 01:59N 54°24' E 018°41'0 0.0
2018-Feb-18 01:30N 54°24' E 018°41'0 0.0
2018-Feb-18 00:59N 54°24' E 018°41'0 0.0
2018-Feb-18 00:30N 54°24' E 018°41'0 0.0
2018-Feb-18 00:00N 54°24' E 018°41'0 0.0
2018-Feb-17 23:30N 54°24' E 018°41'0 0.0
2018-Feb-17 23:00N 54°24' E 018°41'0 0.0
2018-Feb-17 22:30N 54°24' E 018°41'0 0.0
2018-Feb-17 22:00N 54°24' E 018°41'0 0.0
2018-Feb-17 21:30N 54°24' E 018°41'0 0.0
2018-Feb-17 21:00N 54°24' E 018°41'0 0.0
2018-Feb-17 20:30N 54°24' E 018°41'0 0.0
2018-Feb-17 20:00N 54°24' E 018°41'0 0.0
2018-Feb-17 19:30N 54°24' E 018°41'0 0.0
2018-Feb-17 19:00N 54°24' E 018°41'0 0.0
2018-Feb-17 18:30N 54°24' E 018°41'0 0.0
2018-Feb-17 18:00N 54°24' E 018°41'0 0.0
2018-Feb-17 17:30N 54°24' E 018°41'0 0.0
2018-Feb-17 17:00N 54°24' E 018°41'0 0.0
2018-Feb-17 16:30N 54°24' E 018°41'0 0.0
2018-Feb-17 16:00N 54°24' E 018°41'0 0.0
2018-Feb-17 15:30N 54°24' E 018°41'0 0.0
2018-Feb-17 15:00N 54°24' E 018°41'0 0.0
2018-Feb-17 14:30N 54°24' E 018°41'0 0.0
2018-Feb-17 14:01N 54°24' E 018°41'0 0.0
2018-Feb-17 13:30N 54°24' E 018°41'0 0.0
2018-Feb-17 13:00N 54°24' E 018°41'0 0.0
2018-Feb-17 12:30N 54°24' E 018°41'0 0.0
2018-Feb-17 12:01N 54°24' E 018°41'0 0.0
2018-Feb-17 11:30N 54°24' E 018°41'0 0.0
2018-Feb-17 11:00N 54°24' E 018°41'0 0.0
2018-Feb-17 10:30N 54°24' E 018°41'0 0.0
2018-Feb-17 10:00N 54°24' E 018°41'0 0.0
2018-Feb-17 09:30N 54°24' E 018°41'0 0.0
2018-Feb-17 09:00N 54°24' E 018°41'0 0.0
2018-Feb-17 08:30N 54°24' E 018°41'0 0.0
2018-Feb-17 08:00N 54°24' E 018°41'0 0.0
2018-Feb-17 07:30N 54°24' E 018°41'0 0.0
2018-Feb-17 07:00N 54°24' E 018°41'0 0.0
2018-Feb-17 06:30N 54°24' E 018°41'0 0.0
2018-Feb-17 06:00N 54°24' E 018°41'0 0.0
2018-Feb-17 05:30N 54°24' E 018°41'0 0.0
2018-Feb-17 05:00N 54°24' E 018°41'0 0.0
2018-Feb-17 04:30N 54°24' E 018°41'0 0.0
2018-Feb-17 04:00N 54°24' E 018°41'0 0.0
2018-Feb-17 03:30N 54°24' E 018°41'0 0.0
2018-Feb-17 03:00N 54°24' E 018°41'0 0.0
2018-Feb-17 02:30N 54°24' E 018°41'0 0.0
2018-Feb-17 02:00N 54°24' E 018°41'0 0.0
2018-Feb-17 01:30N 54°24' E 018°41'0 0.0
2018-Feb-17 01:00N 54°24' E 018°41'0 0.0
2018-Feb-17 00:29N 54°24' E 018°41'0 0.0
2018-Feb-17 00:00N 54°24' E 018°41'0 0.0
2018-Feb-16 23:30N 54°24' E 018°41'0 0.0
2018-Feb-16 23:00N 54°24' E 018°41'0 0.0
2018-Feb-16 22:28N 54°24' E 018°41'0 0.0
2018-Feb-16 22:00N 54°24' E 018°41'0 0.0
2018-Feb-16 21:30N 54°24' E 018°41'0 0.0
2018-Feb-16 21:00N 54°24' E 018°41'0 0.0
2018-Feb-16 20:30N 54°24' E 018°41'0 0.0
2018-Feb-16 20:00N 54°24' E 018°41'0 0.0
2018-Feb-16 19:30N 54°24' E 018°41'0 0.0
2018-Feb-16 19:00N 54°24' E 018°41'0 0.0
2018-Feb-16 18:30N 54°24' E 018°41'0 0.0
2018-Feb-16 18:00N 54°24' E 018°41'0 0.0
2018-Feb-16 17:30N 54°24' E 018°41'0 0.0
2018-Feb-16 17:00N 54°24' E 018°41'0 0.0
2018-Feb-16 16:30N 54°24' E 018°41'0 0.0
2018-Feb-16 15:59N 54°24' E 018°41'0 0.0
2018-Feb-16 15:30N 54°24' E 018°41'0 0.0
2018-Feb-16 15:00N 54°24' E 018°41'0 0.0
2018-Feb-16 14:30N 54°24' E 018°41'0 0.0
2018-Feb-16 14:01N 54°24' E 018°41'0 0.0
2018-Feb-16 13:30N 54°24' E 018°41'0 0.0
2018-Feb-16 13:00N 54°24' E 018°41'0 0.0
2018-Feb-16 12:30N 54°24' E 018°41'0 0.0
2018-Feb-16 12:01N 54°24' E 018°41'0 0.0
2018-Feb-16 11:30N 54°24' E 018°41'0 0.0
2018-Feb-16 11:00N 54°24' E 018°41'2 4.5
2018-Feb-16 10:30N 54°26' E 018°39'5 9.8
2018-Feb-16 09:58N 54°31' E 018°43'4 9.3
2018-Feb-16 09:30N 54°35' E 018°46'4 7.8
2018-Feb-16 09:00N 54°36' E 018°40'5 8.8
2018-Feb-16 08:29N 54°40' E 018°40'4 7.4
2018-Feb-16 08:00N 54°38' E 018°34'2 3.1
2018-Feb-16 07:28N 54°37' E 018°33'2 4.6
2018-Feb-16 07:00N 54°35' E 018°35'5 9.9
2018-Feb-16 06:30N 54°31' E 018°38'3 6.7
2018-Feb-16 06:00N 54°27' E 018°39'1 1.5
2018-Feb-16 05:26N 54°26' E 018°39'0 0.0
2018-Feb-16 04:59N 54°26' E 018°39'0 0.0
2018-Feb-16 04:26N 54°26' E 018°39'0 0.0
2018-Feb-16 03:59N 54°26' E 018°39'0 0.0
2018-Feb-16 03:26N 54°26' E 018°39'0 0.0
2018-Feb-16 02:59N 54°26' E 018°39'0 0.0
2018-Feb-16 02:29N 54°26' E 018°39'0 0.0
2018-Feb-16 01:59N 54°26' E 018°39'0 0.0
2018-Feb-16 01:29N 54°26' E 018°39'0 0.0
2018-Feb-16 00:59N 54°26' E 018°39'0 0.0
2018-Feb-16 00:29N 54°26' E 018°39'0 0.0
2018-Feb-15 23:56N 54°26' E 018°39'0 0.0
2018-Feb-15 23:29N 54°26' E 018°39'0 0.0
2018-Feb-15 22:59N 54°26' E 018°39'0 0.0
2018-Feb-15 22:29N 54°26' E 018°39'0 0.0
2018-Feb-15 21:59N 54°26' E 018°39'0 0.0
2018-Feb-15 21:29N 54°26' E 018°39'0 0.0
2018-Feb-15 20:59N 54°26' E 018°39'0 0.0
2018-Feb-15 20:29N 54°26' E 018°39'0 0.0
2018-Feb-15 19:59N 54°26' E 018°39'0 0.0
2018-Feb-15 19:29N 54°26' E 018°39'0 0.0
2018-Feb-15 18:59N 54°26' E 018°39'0 0.0
2018-Feb-15 18:29N 54°26' E 018°39'0 0.0
2018-Feb-15 17:59N 54°26' E 018°39'1 1.2
2018-Feb-15 17:29N 54°26' E 018°40'4 8.7
2018-Feb-15 17:00N 54°26' E 018°47'4 8.7
2018-Feb-15 16:30N 54°23' E 018°52'0 0.2
2018-Feb-15 15:59N 54°23' E 018°52'3 5.1
2018-Feb-15 15:26N 54°23' E 018°57'0 0.1
2018-Feb-15 15:00N 54°23' E 018°57'2 3.3
2018-Feb-15 14:30N 54°22' E 018°60'4 7.4
2018-Feb-15 14:00N 54°25' E 018°55'3 5.9
2018-Feb-15 13:30N 54°23' E 018°59'2 4.2
2018-Feb-15 13:00N 54°22' E 019°03'4 7.5
2018-Feb-15 12:30N 54°25' E 018°58'2 4.1
2018-Feb-15 12:00N 54°24' E 019°01'4 7.7
2018-Feb-15 11:30N 54°22' E 019°07'4 7.8
2018-Feb-15 11:00N 54°25' E 019°03'1 1.1
2018-Feb-15 10:30N 54°25' E 019°04'4 7.9
2018-Feb-15 10:00N 54°23' E 019°09'2 3.8
2018-Feb-15 09:30N 54°25' E 019°08'2 5.0
2018-Feb-15 09:00N 54°27' E 019°07'4 7.8
2018-Feb-15 08:30N 54°25' E 019°13'4 7.6
2018-Feb-15 08:00N 54°23' E 019°19'3 3.9
2018-Feb-15 07:15N 54°24' E 019°23'0 0.0
2018-Feb-15 06:17N 54°24' E 019°23'0 0.0
2018-Feb-15 05:54N 54°24' E 019°23'0 0.1
2018-Feb-15 05:24N 54°24' E 019°23'0 0.0
2018-Feb-15 04:56N 54°24' E 019°23'0 0.1
2018-Feb-15 04:29N 54°24' E 019°23'0 0.0
2018-Feb-15 04:00N 54°24' E 019°23'0 0.2
2018-Feb-15 03:30N 54°24' E 019°23'3 6.0
2018-Feb-15 03:00N 54°24' E 019°18'510.0
2018-Feb-15 02:30N 54°23' E 019°10'510.0
2018-Feb-15 02:00N 54°23' E 019°01'3 6.4
2018-Feb-15 01:29N 54°23' E 018°55'910.0
2018-Feb-15 00:33N 54°23' E 019°11'1 9.8
2018-Feb-15 00:28N 54°23' E 019°12'5 9.9
2018-Feb-14 23:59N 54°24' E 019°21'5 9.7
2018-Feb-14 23:30N 54°26' E 019°28'2 3.7
2018-Feb-14 22:54N 54°28' E 019°28'410.0
2018-Feb-14 22:30N 54°28' E 019°22'4 8.5
2018-Feb-14 22:00N 54°31' E 019°16'5 9.6
2018-Feb-14 21:30N 54°35' E 019°12'5 9.9
2018-Feb-14 21:00N 54°40' E 019°15'5 9.8
2018-Feb-14 20:29N 54°42' E 019°07'5 9.4
2018-Feb-14 19:58N 54°46' E 019°03'4 8.5
2018-Feb-14 19:28N 54°50' E 019°06'7 9.8
2018-Feb-14 18:48N 54°48' E 019°17'2 0.7
2018-Feb-14 16:00N 54°49' E 019°15'510.1
2018-Feb-14 15:30N 54°48' E 019°06'5 9.5
2018-Feb-14 14:58N 54°47' E 018°58'5 9.6
2018-Feb-14 14:30N 54°49' E 018°51'5 9.5
2018-Feb-14 13:59N 54°50' E 018°42'5 9.9
2018-Feb-14 13:30N 54°50' E 018°34'5 9.9
2018-Feb-14 13:00N 54°51' E 018°25'3 6.4
2018-Feb-14 12:30N 54°49' E 018°30'5 9.9
2018-Feb-14 12:00N 54°46' E 018°37'5 9.9
2018-Feb-14 11:30N 54°43' E 018°44'5 9.7
2018-Feb-14 10:58N 54°40' E 018°51'5 9.9
2018-Feb-14 10:30N 54°36' E 018°56'4 8.7
2018-Feb-14 10:00N 54°32' E 018°53'5 9.8
2018-Feb-14 09:30N 54°29' E 018°47'5 9.9
2018-Feb-14 09:00N 54°26' E 018°39'2 3.8
2018-Feb-14 08:27N 54°24' E 018°41'0 0.0
2018-Feb-14 08:00N 54°24' E 018°41'0 0.0
2018-Feb-14 07:30N 54°24' E 018°41'0 0.0
2018-Feb-14 07:00N 54°24' E 018°41'0 0.0
2018-Feb-14 06:30N 54°24' E 018°41'0 0.0
2018-Feb-14 06:00N 54°24' E 018°41'0 0.0
2018-Feb-14 05:30N 54°24' E 018°41'0 0.0
2018-Feb-14 05:00N 54°24' E 018°41'0 0.0
2018-Feb-14 04:30N 54°24' E 018°41'0 0.0
2018-Feb-14 04:00N 54°24' E 018°41'0 0.0
2018-Feb-14 03:30N 54°24' E 018°41'0 0.0
2018-Feb-14 03:00N 54°24' E 018°41'0 0.0
2018-Feb-14 02:30N 54°24' E 018°41'0 0.0
2018-Feb-14 02:00N 54°24' E 018°41'0 0.0
2018-Feb-14 01:30N 54°24' E 018°41'0 0.0
2018-Feb-14 01:00N 54°24' E 018°41'0 0.0
2018-Feb-14 00:30N 54°24' E 018°41'0 0.0
2018-Feb-14 00:00N 54°24' E 018°41'0 0.0
2018-Feb-13 23:30N 54°24' E 018°41'0 0.0
2018-Feb-13 23:00N 54°24' E 018°41'0 0.0
2018-Feb-13 22:30N 54°24' E 018°41'0 0.0
2018-Feb-13 22:00N 54°24' E 018°41'0 0.0
2018-Feb-13 21:30N 54°24' E 018°41'0 0.0
2018-Feb-13 20:57N 54°24' E 018°41'0 0.0
2018-Feb-13 20:30N 54°24' E 018°41'0 0.0
2018-Feb-13 20:00N 54°24' E 018°41'0 0.0
2018-Feb-13 19:30N 54°24' E 018°41'0 0.0
2018-Feb-13 19:00N 54°24' E 018°41'0 0.0
2018-Feb-13 18:30N 54°24' E 018°41'0 0.0
2018-Feb-13 18:00N 54°24' E 018°41'0 0.0
2018-Feb-13 17:30N 54°24' E 018°41'  
Track history (hours):
 
Tides and Currents Weather Stations Pressure Air Temp Water Temp Dewpoint Dewpoint Depression Visibility Wind Speed Wind Dir Waves Ship Positions

Oceanographic research ship Oceania (Poland)

Detailed information on ship capabilities available from University of Delaware's Ocean Information Center and ARCUS's ALIAS (Arctic Logistics Information and Support) project.

Last reported at 2018-Feb-23 17:28 UTC. Time now 2018-Feb-23 17:53 UTC.
Position N 54°36' E 018°48'.

Length 49 m; beam 9 m.

Type: Sailing vessel. MMSI: 261000142.

Date/timePositionNaut miles runAvg speedWind from/ knotsBaromVisibWave heightAir tempDewpointWater temp
2018-Feb-23 17:28N 54°36' E 018°48'0 0.0
2018-Feb-23 16:58N 54°36' E 018°48'0 0.0
2018-Feb-23 16:28N 54°36' E 018°48'0 0.0
2018-Feb-23 15:58N 54°36' E 018°48'0 0.0
2018-Feb-23 15:28N 54°36' E 018°48'0 0.0
2018-Feb-23 14:58N 54°36' E 018°48'0 0.6
2018-Feb-23 14:30N 54°36' E 018°48'2 4.3
2018-Feb-23 14:00N 54°37' E 018°51'5 9.3
2018-Feb-23 13:30N 54°41' E 018°47'510.4
2018-Feb-23 13:00N 54°45' E 018°41'510.3
2018-Feb-23 12:30N 54°49' E 018°35'510.5
2018-Feb-23 12:00N 54°53' E 018°29'510.5
2018-Feb-23 11:30N 54°57' E 018°23'  
2018-Feb-19 20:09N 54°52' E 018°17'310.1
2018-Feb-19 19:49N 54°51' E 018°22'310.1
2018-Feb-19 19:30N 54°50' E 018°27'5 9.8
2018-Feb-19 19:00N 54°47' E 018°34'5 9.9
2018-Feb-19 18:30N 54°44' E 018°42'510.0
2018-Feb-19 18:00N 54°41' E 018°48'5 9.7
2018-Feb-19 17:30N 54°38' E 018°54'4 8.2
2018-Feb-19 16:58N 54°33' E 018°54'510.0
2018-Feb-19 16:30N 54°30' E 018°49'5 9.9
2018-Feb-19 16:00N 54°27' E 018°41'3 6.2
2018-Feb-19 15:30N 54°24' E 018°41'0 0.0
2018-Feb-19 15:00N 54°24' E 018°41'0 0.0
2018-Feb-19 14:30N 54°24' E 018°41'0 0.0
2018-Feb-19 14:00N 54°24' E 018°41'0 0.0
2018-Feb-19 13:30N 54°24' E 018°41'0 0.0
2018-Feb-19 13:00N 54°24' E 018°41'0 0.0
2018-Feb-19 12:30N 54°24' E 018°41'0 0.0
2018-Feb-19 12:00N 54°24' E 018°41'0 0.0
2018-Feb-19 11:30N 54°24' E 018°41'0 0.0
2018-Feb-19 11:00N 54°24' E 018°41'0 0.0
2018-Feb-19 10:30N 54°24' E 018°41'0 0.0
2018-Feb-19 09:57N 54°24' E 018°41'0 0.0
2018-Feb-19 09:30N 54°24' E 018°41'0 0.0
2018-Feb-19 09:00N 54°24' E 018°41'0 0.0
2018-Feb-19 08:30N 54°24' E 018°41'0 0.0
2018-Feb-19 08:00N 54°24' E 018°41'0 0.0
2018-Feb-19 07:30N 54°24' E 018°41'0 0.0
2018-Feb-19 07:00N 54°24' E 018°41'0 0.0
2018-Feb-19 06:29N 54°24' E 018°41'0 0.0
2018-Feb-19 06:00N 54°24' E 018°41'0 0.0
2018-Feb-19 05:30N 54°24' E 018°41'0 0.0
2018-Feb-19 05:00N 54°24' E 018°41'0 0.0
2018-Feb-19 04:30N 54°24' E 018°41'0 0.0
2018-Feb-19 04:00N 54°24' E 018°41'0 0.0
2018-Feb-19 03:30N 54°24' E 018°41'0 0.0
2018-Feb-19 03:00N 54°24' E 018°41'0 0.0
2018-Feb-19 02:30N 54°24' E 018°41'0 0.0
2018-Feb-19 02:00N 54°24' E 018°41'0 0.0
2018-Feb-19 01:30N 54°24' E 018°41'0 0.0
2018-Feb-19 01:00N 54°24' E 018°41'0 0.0
2018-Feb-19 00:30N 54°24' E 018°41'0 0.0
2018-Feb-19 00:00N 54°24' E 018°41'0 0.0
2018-Feb-18 23:29N 54°24' E 018°41'0 0.0
2018-Feb-18 23:00N 54°24' E 018°41'0 0.0
2018-Feb-18 22:31N 54°24' E 018°41'0 0.0
2018-Feb-18 22:00N 54°24' E 018°41'0 0.0
2018-Feb-18 21:30N 54°24' E 018°41'0 0.0
2018-Feb-18 21:00N 54°24' E 018°41'0 0.0
2018-Feb-18 20:30N 54°24' E 018°41'0 0.0
2018-Feb-18 20:00N 54°24' E 018°41'0 0.0
2018-Feb-18 19:28N 54°24' E 018°41'0 0.0
2018-Feb-18 19:00N 54°24' E 018°41'0 0.0
2018-Feb-18 18:30N 54°24' E 018°41'0 0.0
2018-Feb-18 18:00N 54°24' E 018°41'0 0.0
2018-Feb-18 17:30N 54°24' E 018°41'0 0.0
2018-Feb-18 17:00N 54°24' E 018°41'0 0.0
2018-Feb-18 16:30N 54°24' E 018°41'0 0.0
2018-Feb-18 16:00N 54°24' E 018°41'0 0.0
2018-Feb-18 15:30N 54°24' E 018°41'0 0.0
2018-Feb-18 15:00N 54°24' E 018°41'0 0.0
2018-Feb-18 14:30N 54°24' E 018°41'0 0.0
2018-Feb-18 14:00N 54°24' E 018°41'0 0.0
2018-Feb-18 13:30N 54°24' E 018°41'0 0.0
2018-Feb-18 13:00N 54°24' E 018°41'0 0.0
2018-Feb-18 12:30N 54°24' E 018°41'0 0.0
2018-Feb-18 11:59N 54°24' E 018°41'0 0.0
2018-Feb-18 11:30N 54°24' E 018°41'0 0.0
2018-Feb-18 10:59N 54°24' E 018°41'0 0.0
2018-Feb-18 10:30N 54°24' E 018°41'0 0.0
2018-Feb-18 10:00N 54°24' E 018°41'0 0.0
2018-Feb-18 09:30N 54°24' E 018°41'0 0.0
2018-Feb-18 09:00N 54°24' E 018°41'0 0.0
2018-Feb-18 08:30N 54°24' E 018°41'0 0.0
2018-Feb-18 08:00N 54°24' E 018°41'0 0.0
2018-Feb-18 07:30N 54°24' E 018°41'0 0.0
2018-Feb-18 06:59N 54°24' E 018°41'0 0.0
2018-Feb-18 06:29N 54°24' E 018°41'0 0.0
2018-Feb-18 06:00N 54°24' E 018°41'0 0.0
2018-Feb-18 05:30N 54°24' E 018°41'0 0.0
2018-Feb-18 05:00N 54°24' E 018°41'0 0.0
2018-Feb-18 04:30N 54°24' E 018°41'0 0.0
2018-Feb-18 04:00N 54°24' E 018°41'0 0.0
2018-Feb-18 03:30N 54°24' E 018°41'0 0.0
2018-Feb-18 03:00N 54°24' E 018°41'0 0.0
2018-Feb-18 02:30N 54°24' E 018°41'0 0.0
2018-Feb-18 01:59N 54°24' E 018°41'0 0.0
2018-Feb-18 01:30N 54°24' E 018°41'0 0.0
2018-Feb-18 00:59N 54°24' E 018°41'0 0.0
2018-Feb-18 00:30N 54°24' E 018°41'0 0.0
2018-Feb-18 00:00N 54°24' E 018°41'0 0.0
2018-Feb-17 23:30N 54°24' E 018°41'0 0.0
2018-Feb-17 23:00N 54°24' E 018°41'0 0.0
2018-Feb-17 22:30N 54°24' E 018°41'0 0.0
2018-Feb-17 22:00N 54°24' E 018°41'0 0.0
2018-Feb-17 21:30N 54°24' E 018°41'0 0.0
2018-Feb-17 21:00N 54°24' E 018°41'0 0.0
2018-Feb-17 20:30N 54°24' E 018°41'0 0.0
2018-Feb-17 20:00N 54°24' E 018°41'0 0.0
2018-Feb-17 19:30N 54°24' E 018°41'0 0.0
2018-Feb-17 19:00N 54°24' E 018°41'0 0.0
2018-Feb-17 18:30N 54°24' E 018°41'0 0.0
2018-Feb-17 18:00N 54°24' E 018°41'0 0.0
2018-Feb-17 17:30N 54°24' E 018°41'0 0.0
2018-Feb-17 17:00N 54°24' E 018°41'0 0.0
2018-Feb-17 16:30N 54°24' E 018°41'0 0.0
2018-Feb-17 16:00N 54°24' E 018°41'0 0.0
2018-Feb-17 15:30N 54°24' E 018°41'0 0.0
2018-Feb-17 15:00N 54°24' E 018°41'0 0.0
2018-Feb-17 14:30N 54°24' E 018°41'0 0.0
2018-Feb-17 14:01N 54°24' E 018°41'0 0.0
2018-Feb-17 13:30N 54°24' E 018°41'0 0.0
2018-Feb-17 13:00N 54°24' E 018°41'0 0.0
2018-Feb-17 12:30N 54°24' E 018°41'0 0.0
2018-Feb-17 12:01N 54°24' E 018°41'0 0.0
2018-Feb-17 11:30N 54°24' E 018°41'0 0.0
2018-Feb-17 11:00N 54°24' E 018°41'0 0.0
2018-Feb-17 10:30N 54°24' E 018°41'0 0.0
2018-Feb-17 10:00N 54°24' E 018°41'0 0.0
2018-Feb-17 09:30N 54°24' E 018°41'0 0.0
2018-Feb-17 09:00N 54°24' E 018°41'0 0.0
2018-Feb-17 08:30N 54°24' E 018°41'0 0.0
2018-Feb-17 08:00N 54°24' E 018°41'0 0.0
2018-Feb-17 07:30N 54°24' E 018°41'0 0.0
2018-Feb-17 07:00N 54°24' E 018°41'0 0.0
2018-Feb-17 06:30N 54°24' E 018°41'0 0.0
2018-Feb-17 06:00N 54°24' E 018°41'0 0.0
2018-Feb-17 05:30N 54°24' E 018°41'0 0.0
2018-Feb-17 05:00N 54°24' E 018°41'0 0.0
2018-Feb-17 04:30N 54°24' E 018°41'0 0.0
2018-Feb-17 04:00N 54°24' E 018°41'0 0.0
2018-Feb-17 03:30N 54°24' E 018°41'0 0.0
2018-Feb-17 03:00N 54°24' E 018°41'0 0.0
2018-Feb-17 02:30N 54°24' E 018°41'0 0.0
2018-Feb-17 02:00N 54°24' E 018°41'0 0.0
2018-Feb-17 01:30N 54°24' E 018°41'0 0.0
2018-Feb-17 01:00N 54°24' E 018°41'0 0.0
2018-Feb-17 00:29N 54°24' E 018°41'0 0.0
2018-Feb-17 00:00N 54°24' E 018°41'0 0.0
2018-Feb-16 23:30N 54°24' E 018°41'0 0.0
2018-Feb-16 23:00N 54°24' E 018°41'0 0.0
2018-Feb-16 22:28N 54°24' E 018°41'0 0.0
2018-Feb-16 22:00N 54°24' E 018°41'0 0.0
2018-Feb-16 21:30N 54°24' E 018°41'0 0.0
2018-Feb-16 21:00N 54°24' E 018°41'0 0.0
2018-Feb-16 20:30N 54°24' E 018°41'0 0.0
2018-Feb-16 20:00N 54°24' E 018°41'0 0.0
2018-Feb-16 19:30N 54°24' E 018°41'0 0.0
2018-Feb-16 19:00N 54°24' E 018°41'0 0.0
2018-Feb-16 18:30N 54°24' E 018°41'0 0.0
2018-Feb-16 18:00N 54°24' E 018°41'0 0.0
2018-Feb-16 17:30N 54°24' E 018°41'0 0.0
2018-Feb-16 17:00N 54°24' E 018°41'0 0.0
2018-Feb-16 16:30N 54°24' E 018°41'0 0.0
2018-Feb-16 15:59N 54°24' E 018°41'0 0.0
2018-Feb-16 15:30N 54°24' E 018°41'0 0.0
2018-Feb-16 15:00N 54°24' E 018°41'0 0.0
2018-Feb-16 14:30N 54°24' E 018°41'0 0.0
2018-Feb-16 14:01N 54°24' E 018°41'0 0.0
2018-Feb-16 13:30N 54°24' E 018°41'0 0.0
2018-Feb-16 13:00N 54°24' E 018°41'0 0.0
2018-Feb-16 12:30N 54°24' E 018°41'0 0.0
2018-Feb-16 12:01N 54°24' E 018°41'0 0.0
2018-Feb-16 11:30N 54°24' E 018°41'0 0.0
2018-Feb-16 11:00N 54°24' E 018°41'2 4.5
2018-Feb-16 10:30N 54°26' E 018°39'5 9.8
2018-Feb-16 09:58N 54°31' E 018°43'4 9.3
2018-Feb-16 09:30N 54°35' E 018°46'4 7.8
2018-Feb-16 09:00N 54°36' E 018°40'5 8.8
2018-Feb-16 08:29N 54°40' E 018°40'4 7.4
2018-Feb-16 08:00N 54°38' E 018°34'2 3.1
2018-Feb-16 07:28N 54°37' E 018°33'2 4.6
2018-Feb-16 07:00N 54°35' E 018°35'5 9.9
2018-Feb-16 06:30N 54°31' E 018°38'3 6.7
2018-Feb-16 06:00N 54°27' E 018°39'1 1.5
2018-Feb-16 05:26N 54°26' E 018°39'0 0.0
2018-Feb-16 04:59N 54°26' E 018°39'0 0.0
2018-Feb-16 04:26N 54°26' E 018°39'0 0.0
2018-Feb-16 03:59N 54°26' E 018°39'0 0.0
2018-Feb-16 03:26N 54°26' E 018°39'0 0.0
2018-Feb-16 02:59N 54°26' E 018°39'0 0.0
2018-Feb-16 02:29N 54°26' E 018°39'0 0.0
2018-Feb-16 01:59N 54°26' E 018°39'0 0.0
2018-Feb-16 01:29N 54°26' E 018°39'0 0.0
2018-Feb-16 00:59N 54°26' E 018°39'0 0.0
2018-Feb-16 00:29N 54°26' E 018°39'0 0.0
2018-Feb-15 23:56N 54°26' E 018°39'0 0.0
2018-Feb-15 23:29N 54°26' E 018°39'0 0.0
2018-Feb-15 22:59N 54°26' E 018°39'0 0.0
2018-Feb-15 22:29N 54°26' E 018°39'0 0.0
2018-Feb-15 21:59N 54°26' E 018°39'0 0.0
2018-Feb-15 21:29N 54°26' E 018°39'0 0.0
2018-Feb-15 20:59N 54°26' E 018°39'0 0.0
2018-Feb-15 20:29N 54°26' E 018°39'0 0.0
2018-Feb-15 19:59N 54°26' E 018°39'0 0.0
2018-Feb-15 19:29N 54°26' E 018°39'0 0.0
2018-Feb-15 18:59N 54°26' E 018°39'0 0.0
2018-Feb-15 18:29N 54°26' E 018°39'0 0.0
2018-Feb-15 17:59N 54°26' E 018°39'1 1.2
2018-Feb-15 17:29N 54°26' E 018°40'4 8.7
2018-Feb-15 17:00N 54°26' E 018°47'4 8.7
2018-Feb-15 16:30N 54°23' E 018°52'0 0.2
2018-Feb-15 15:59N 54°23' E 018°52'3 5.1
2018-Feb-15 15:26N 54°23' E 018°57'0 0.1
2018-Feb-15 15:00N 54°23' E 018°57'2 3.3
2018-Feb-15 14:30N 54°22' E 018°60'4 7.4
2018-Feb-15 14:00N 54°25' E 018°55'3 5.9
2018-Feb-15 13:30N 54°23' E 018°59'2 4.2
2018-Feb-15 13:00N 54°22' E 019°03'4 7.5
2018-Feb-15 12:30N 54°25' E 018°58'2 4.1
2018-Feb-15 12:00N 54°24' E 019°01'4 7.7
2018-Feb-15 11:30N 54°22' E 019°07'4 7.8
2018-Feb-15 11:00N 54°25' E 019°03'1 1.1
2018-Feb-15 10:30N 54°25' E 019°04'4 7.9
2018-Feb-15 10:00N 54°23' E 019°09'2 3.8
2018-Feb-15 09:30N 54°25' E 019°08'2 5.0
2018-Feb-15 09:00N 54°27' E 019°07'4 7.8
2018-Feb-15 08:30N 54°25' E 019°13'4 7.6
2018-Feb-15 08:00N 54°23' E 019°19'3 3.9
2018-Feb-15 07:15N 54°24' E 019°23'0 0.0
2018-Feb-15 06:17N 54°24' E 019°23'0 0.0
2018-Feb-15 05:54N 54°24' E 019°23'0 0.1
2018-Feb-15 05:24N 54°24' E 019°23'0 0.0
2018-Feb-15 04:56N 54°24' E 019°23'0 0.1
2018-Feb-15 04:29N 54°24' E 019°23'0 0.0
2018-Feb-15 04:00N 54°24' E 019°23'0 0.2
2018-Feb-15 03:30N 54°24' E 019°23'3 6.0
2018-Feb-15 03:00N 54°24' E 019°18'510.0
2018-Feb-15 02:30N 54°23' E 019°10'510.0
2018-Feb-15 02:00N 54°23' E 019°01'3 6.4
2018-Feb-15 01:29N 54°23' E 018°55'910.0
2018-Feb-15 00:33N 54°23' E 019°11'1 9.8
2018-Feb-15 00:28N 54°23' E 019°12'5 9.9
2018-Feb-14 23:59N 54°24' E 019°21'5 9.7
2018-Feb-14 23:30N 54°26' E 019°28'2 3.7
2018-Feb-14 22:54N 54°28' E 019°28'410.0
2018-Feb-14 22:30N 54°28' E 019°22'4 8.5
2018-Feb-14 22:00N 54°31' E 019°16'5 9.6
2018-Feb-14 21:30N 54°35' E 019°12'5 9.9
2018-Feb-14 21:00N 54°40' E 019°15'5 9.8
2018-Feb-14 20:29N 54°42' E 019°07'5 9.4
2018-Feb-14 19:58N 54°46' E 019°03'4 8.5
2018-Feb-14 19:28N 54°50' E 019°06'7 9.8
2018-Feb-14 18:48N 54°48' E 019°17'2 0.7
2018-Feb-14 16:00N 54°49' E 019°15'510.1
2018-Feb-14 15:30N 54°48' E 019°06'5 9.5
2018-Feb-14 14:58N 54°47' E 018°58'5 9.6
2018-Feb-14 14:30N 54°49' E 018°51'5 9.5
2018-Feb-14 13:59N 54°50' E 018°42'5 9.9
2018-Feb-14 13:30N 54°50' E 018°34'5 9.9
2018-Feb-14 13:00N 54°51' E 018°25'3 6.4
2018-Feb-14 12:30N 54°49' E 018°30'5 9.9
2018-Feb-14 12:00N 54°46' E 018°37'5 9.9
2018-Feb-14 11:30N 54°43' E 018°44'5 9.7
2018-Feb-14 10:58N 54°40' E 018°51'5 9.9
2018-Feb-14 10:30N 54°36' E 018°56'4 8.7
2018-Feb-14 10:00N 54°32' E 018°53'5 9.8
2018-Feb-14 09:30N 54°29' E 018°47'5 9.9
2018-Feb-14 09:00N 54°26' E 018°39'2 3.8
2018-Feb-14 08:27N 54°24' E 018°41'0 0.0
2018-Feb-14 08:00N 54°24' E 018°41'0 0.0
2018-Feb-14 07:30N 54°24' E 018°41'0 0.0
2018-Feb-14 07:00N 54°24' E 018°41'0 0.0
2018-Feb-14 06:30N 54°24' E 018°41'0 0.0
2018-Feb-14 06:00N 54°24' E 018°41'0 0.0
2018-Feb-14 05:30N 54°24' E 018°41'0 0.0
2018-Feb-14 05:00N 54°24' E 018°41'0 0.0
2018-Feb-14 04:30N 54°24' E 018°41'0 0.0
2018-Feb-14 04:00N 54°24' E 018°41'0 0.0
2018-Feb-14 03:30N 54°24' E 018°41'0 0.0
2018-Feb-14 03:00N 54°24' E 018°41'0 0.0
2018-Feb-14 02:30N 54°24' E 018°41'0 0.0
2018-Feb-14 02:00N 54°24' E 018°41'0 0.0
2018-Feb-14 01:30N 54°24' E 018°41'0 0.0
2018-Feb-14 01:00N 54°24' E 018°41'0 0.0
2018-Feb-14 00:30N 54°24' E 018°41'0 0.0
2018-Feb-14 00:00N 54°24' E 018°41'0 0.0
2018-Feb-13 23:30N 54°24' E 018°41'0 0.0
2018-Feb-13 23:00N 54°24' E 018°41'0 0.0
2018-Feb-13 22:30N 54°24' E 018°41'0 0.0
2018-Feb-13 22:00N 54°24' E 018°41'0 0.0
2018-Feb-13 21:30N 54°24' E 018°41'0 0.0
2018-Feb-13 20:57N 54°24' E 018°41'0 0.0
2018-Feb-13 20:30N 54°24' E 018°41'0 0.0
2018-Feb-13 20:00N 54°24' E 018°41'0 0.0
2018-Feb-13 19:30N 54°24' E 018°41'0 0.0
2018-Feb-13 19:00N 54°24' E 018°41'0 0.0
2018-Feb-13 18:30N 54°24' E 018°41'0 0.0
2018-Feb-13 18:00N 54°24' E 018°41'0 0.0
2018-Feb-13 17:30N 54°24' E 018°41'  

Dump ship's entire track history